Time,TemperatureF,DewpointF,PressureIn,WindDirection,WindDirectionDegrees,WindSpeedMPH,WindSpeedGustMPH,Humidity,HourlyPrecipIn,Conditions,Clouds,dailyrainin,SoftwareType,DateUTC
2013-08-27 00:14:00,74.3,69.0,29.94,SE,134,0.0,7.0,83,0.00,,,0.00,weatherlink.com 1.10,2013-08-27 05:14:00,
2013-08-27 00:29:00,74.7,69.0,29.95,ESE,117,4.0,8.0,83,0.00,,,0.00,weatherlink.com 1.10,2013-08-27 05:29:00,
2013-08-27 00:44:00,74.9,69.0,29.94,SE,140,1.0,12.0,82,0.00,,,0.00,weatherlink.com 1.10,2013-08-27 05:44:00,
2013-08-27 00:59:00,74.9,69.0,29.94,SE,132,5.0,6.0,82,0.00,,,0.00,weatherlink.com 1.10,2013-08-27 05:59:00,
2013-08-27 01:14:00,74.8,69.0,29.94,SE,140,1.0,7.0,82,0.00,,,0.00,weatherlink.com 1.10,2013-08-27 06:14:00,
2013-08-27 01:30:00,74.5,69.0,29.94,SE,136,0.0,7.0,82,0.00,,,0.00,weatherlink.com 1.10,2013-08-27 06:30:00,
2013-08-27 01:44:00,74.3,69.0,29.94,SE,136,2.0,5.0,82,0.00,,,0.00,weatherlink.com 1.10,2013-08-27 06:44:00,
2013-08-27 01:59:00,74.3,69.0,29.94,SE,136,1.0,5.0,83,0.00,,,0.00,weatherlink.com 1.10,2013-08-27 06:59:00,
2013-08-27 02:14:00,74.4,69.0,29.94,SE,136,0.0,4.0,83,0.00,,,0.00,weatherlink.com 1.10,2013-08-27 07:14:00,
2013-08-27 02:29:00,74.1,69.0,29.94,SSE,161,5.0,10.0,84,0.00,,,0.00,weatherlink.com 1.10,2013-08-27 07:29:00,
2013-08-27 02:44:00,73.2,69.0,29.94,SSE,148,4.0,8.0,87,0.00,,,0.00,weatherlink.com 1.10,2013-08-27 07:44:00,
2013-08-27 03:00:00,72.4,69.0,29.94,SSE,147,0.0,5.0,90,0.00,,,0.00,weatherlink.com 1.10,2013-08-27 08:00:00,
2013-08-27 03:15:00,72.0,70.0,29.94,SSE,147,0.0,4.0,92,0.00,,,0.00,weatherlink.com 1.10,2013-08-27 08:15:00,
2013-08-27 03:30:00,71.9,70.0,29.94,SSE,147,0.0,4.0,93,0.00,,,0.00,weatherlink.com 1.10,2013-08-27 08:30:00,
2013-08-27 03:45:00,71.9,70.0,29.94,SSE,147,0.0,4.0,93,0.01,,,0.01,weatherlink.com 1.10,2013-08-27 08:45:00,
2013-08-27 04:00:00,71.8,70.0,29.94,SSE,147,0.0,3.0,94,0.01,,,0.01,weatherlink.com 1.10,2013-08-27 09:00:00,
2013-08-27 04:15:00,71.9,70.0,29.94,SSE,147,0.0,3.0,94,0.02,,,0.02,weatherlink.com 1.10,2013-08-27 09:15:00,
2013-08-27 04:30:00,71.9,70.0,29.94,SSE,147,0.0,3.0,94,0.02,,,0.02,weatherlink.com 1.10,2013-08-27 09:30:00,
2013-08-27 04:45:00,71.9,70.0,29.94,SSE,147,0.0,2.0,94,0.05,,,0.06,weatherlink.com 1.10,2013-08-27 09:45:00,
2013-08-27 05:00:00,71.9,71.0,29.94,SSE,147,0.0,2.0,95,0.08,,,0.09,weatherlink.com 1.10,2013-08-27 10:00:00,
2013-08-27 05:15:00,71.9,71.0,29.94,SSE,147,0.0,2.0,95,0.10,,,0.12,weatherlink.com 1.10,2013-08-27 10:15:00,
2013-08-27 05:30:00,71.9,71.0,29.94,SSE,147,4.0,4.0,95,0.14,,,0.16,weatherlink.com 1.10,2013-08-27 10:30:00,
2013-08-27 05:45:00,71.7,70.0,29.94,SE,146,6.0,8.0,95,0.18,,,0.24,weatherlink.com 1.10,2013-08-27 10:45:00,
2013-08-27 06:15:00,70.9,69.0,29.95,SSE,155,2.0,5.0,94,0.18,,,0.30,weatherlink.com 1.10,2013-08-27 11:15:00,
2013-08-27 06:30:00,71.2,70.0,29.95,SSE,155,0.0,2.0,95,0.20,,,0.36,weatherlink.com 1.10,2013-08-27 11:30:00,
2013-08-27 06:45:00,71.5,70.0,29.95,SSE,155,0.0,2.0,95,0.12,,,0.37,weatherlink.com 1.10,2013-08-27 11:45:00,
2013-08-27 07:00:00,71.6,70.0,29.96,SSE,155,1.0,4.0,95,0.12,,,0.38,weatherlink.com 1.10,2013-08-27 12:00:00,
2013-08-27 07:15:00,71.7,70.0,29.96,SSE,155,2.0,4.0,95,0.07,,,0.00,weatherlink.com 1.10,2013-08-27 12:15:00,
2013-08-27 07:30:00,71.7,70.0,29.97,SSE,155,6.0,7.0,95,0.06,,,0.04,weatherlink.com 1.10,2013-08-27 12:30:00,
2013-08-27 07:46:00,71.7,71.0,29.97,SSE,155,0.0,4.0,96,0.09,,,0.08,weatherlink.com 1.10,2013-08-27 12:46:00,
2013-08-27 08:15:00,72.1,71.0,29.98,SSE,155,0.0,4.0,96,0.08,,,0.08,weatherlink.com 1.10,2013-08-27 13:15:00,
2013-08-27 08:30:00,72.2,71.0,29.98,SSE,155,3.0,4.0,96,0.04,,,0.08,weatherlink.com 1.10,2013-08-27 13:30:00,
2013-08-27 08:45:00,72.5,71.0,29.98,SSE,155,3.0,6.0,96,0.00,,,0.08,weatherlink.com 1.10,2013-08-27 13:45:00,
2013-08-27 09:01:00,72.8,72.0,29.98,SSE,155,2.0,5.0,96,0.00,,,0.08,weatherlink.com 1.10,2013-08-27 14:01:00,
2013-08-27 09:16:00,73.0,72.0,29.99,SSE,155,3.0,7.0,96,0.00,,,0.08,weatherlink.com 1.10,2013-08-27 14:16:00,
2013-08-27 09:30:00,73.5,72.0,29.99,SSE,155,1.0,5.0,95,0.00,,,0.08,weatherlink.com 1.10,2013-08-27 14:30:00,
2013-08-27 09:45:00,73.7,72.0,30.00,SSE,155,2.0,6.0,95,0.00,,,0.08,weatherlink.com 1.10,2013-08-27 14:45:00,
2013-08-27 10:00:00,73.9,72.0,30.01,SSE,155,2.0,3.0,94,0.00,,,0.08,weatherlink.com 1.10,2013-08-27 15:00:00,
2013-08-27 10:15:00,74.4,73.0,30.01,SSE,155,1.0,2.0,94,0.00,,,0.08,weatherlink.com 1.10,2013-08-27 15:15:00,
2013-08-27 10:31:00,75.3,73.0,30.01,SSE,155,2.0,6.0,91,0.00,,,0.08,weatherlink.com 1.10,2013-08-27 15:31:00,
2013-08-27 10:46:00,76.1,72.0,30.01,SSE,156,2.0,6.0,87,0.00,,,0.08,weatherlink.com 1.10,2013-08-27 15:46:00,
2013-08-27 11:01:00,76.5,72.0,30.02,SSE,156,2.0,4.0,86,0.00,,,0.08,weatherlink.com 1.10,2013-08-27 16:01:00,
2013-08-27 11:16:00,77.0,72.0,30.02,SSE,157,6.0,7.0,84,0.00,,,0.08,weatherlink.com 1.10,2013-08-27 16:16:00,
2013-08-27 11:31:00,77.6,72.0,30.02,SSE,157,3.0,5.0,82,0.00,,,0.08,weatherlink.com 1.10,2013-08-27 16:31:00,
2013-08-27 11:46:00,78.0,71.0,30.01,SSE,161,4.0,9.0,80,0.00,,,0.08,weatherlink.com 1.10,2013-08-27 16:46:00,
2013-08-27 12:01:00,78.6,72.0,30.00,SSE,163,1.0,6.0,80,0.00,,,0.08,weatherlink.com 1.10,2013-08-27 17:01:00,
2013-08-27 12:31:00,80.0,71.0,30.00,SSE,163,1.0,6.0,73,0.00,,,0.08,weatherlink.com 1.10,2013-08-27 17:31:00,
2013-08-27 12:46:00,80.0,73.0,29.99,SSE,163,3.0,4.0,79,0.00,,,0.08,weatherlink.com 1.10,2013-08-27 17:46:00,
2013-08-27 13:01:00,80.2,71.0,29.98,SSE,163,2.0,6.0,73,0.00,,,0.08,weatherlink.com 1.10,2013-08-27 18:01:00,
2013-08-27 13:16:00,80.9,71.0,29.98,SSE,166,3.0,7.0,72,0.00,,,0.08,weatherlink.com 1.10,2013-08-27 18:16:00,
2013-08-27 13:31:00,81.7,71.0,29.98,SSE,167,1.0,5.0,70,0.00,,,0.08,weatherlink.com 1.10,2013-08-27 18:31:00,
2013-08-27 13:46:00,81.4,71.0,29.98,SSE,167,1.0,2.0,71,0.00,,,0.08,weatherlink.com 1.10,2013-08-27 18:46:00,
2013-08-27 14:01:00,80.6,73.0,29.98,SSE,167,0.0,5.0,77,0.00,,,0.08,weatherlink.com 1.10,2013-08-27 19:01:00,
2013-08-27 14:16:00,80.0,73.0,29.97,SSE,167,2.0,3.0,80,0.00,,,0.08,weatherlink.com 1.10,2013-08-27 19:16:00,
2013-08-27 14:32:00,79.6,73.0,29.96,SSE,167,1.0,3.0,79,0.00,,,0.08,weatherlink.com 1.10,2013-08-27 19:32:00,
2013-08-27 14:47:00,78.8,73.0,29.96,SSE,167,0.0,4.0,81,0.01,,,0.09,weatherlink.com 1.10,2013-08-27 19:47:00,
2013-08-27 15:02:00,78.7,73.0,29.96,SSE,167,1.0,4.0,82,0.01,,,0.09,weatherlink.com 1.10,2013-08-27 20:02:00,
2013-08-27 15:17:00,80.5,71.0,29.95,SSE,161,1.0,5.0,73,0.01,,,0.09,weatherlink.com 1.10,2013-08-27 20:17:00,
2013-08-27 15:32:00,81.7,72.0,29.95,ESE,110,1.0,4.0,72,0.01,,,0.09,weatherlink.com 1.10,2013-08-27 20:32:00,
2013-08-27 15:47:00,81.7,73.0,29.94,NNE,15,5.0,9.0,74,0.00,,,0.09,weatherlink.com 1.10,2013-08-27 20:47:00,
2013-08-27 16:02:00,81.1,72.0,29.94,NNE,27,4.0,9.0,74,0.00,,,0.09,weatherlink.com 1.10,2013-08-27 21:02:00,
2013-08-27 16:47:00,75.2,72.0,29.95,ENE,73,4.0,19.0,90,0.82,,,0.91,weatherlink.com 1.10,2013-08-27 21:47:00,
2013-08-27 17:02:00,75.8,73.0,29.94,ENE,60,4.0,7.0,92,0.82,,,0.91,weatherlink.com 1.10,2013-08-27 22:02:00,
2013-08-27 17:17:00,77.0,75.0,29.94,NE,56,6.0,7.0,92,0.82,,,0.91,weatherlink.com 1.10,2013-08-27 22:17:00,
2013-08-27 17:32:00,77.5,73.0,29.94,ENE,57,3.0,6.0,87,0.11,,,0.91,weatherlink.com 1.10,2013-08-27 22:32:00,
2013-08-27 17:47:00,77.5,74.0,29.93,NE,49,1.0,7.0,88,0.00,,,0.91,weatherlink.com 1.10,2013-08-27 22:47:00,
2013-08-27 18:02:00,77.6,73.0,29.93,NE,46,3.0,7.0,86,0.00,,,0.91,weatherlink.com 1.10,2013-08-27 23:02:00,
2013-08-27 18:17:00,77.5,73.0,29.93,NE,40,3.0,7.0,86,0.00,,,0.91,weatherlink.com 1.10,2013-08-27 23:17:00,
2013-08-27 18:32:00,77.4,73.0,29.92,NE,56,1.0,4.0,86,0.00,,,0.91,weatherlink.com 1.10,2013-08-27 23:32:00,
2013-08-27 18:47:00,77.3,73.0,29.92,NE,56,1.0,4.0,86,0.00,,,0.91,weatherlink.com 1.10,2013-08-27 23:47:00,
2013-08-27 19:02:00,77.1,73.0,29.92,NE,56,0.0,2.0,86,0.00,,,0.91,weatherlink.com 1.10,2013-08-28 00:02:00,
2013-08-27 19:17:00,77.1,73.0,29.92,NE,56,0.0,0.0,87,0.00,,,0.91,weatherlink.com 1.10,2013-08-28 00:17:00,
2013-08-27 19:32:00,76.9,73.0,29.91,NE,56,0.0,1.0,87,0.00,,,0.91,weatherlink.com 1.10,2013-08-28 00:32:00,
2013-08-27 19:47:00,76.6,73.0,29.92,NE,56,0.0,1.0,87,0.00,,,0.91,weatherlink.com 1.10,2013-08-28 00:47:00,
2013-08-27 20:02:00,76.4,72.0,29.91,NE,56,0.0,1.0,87,0.00,,,0.91,weatherlink.com 1.10,2013-08-28 01:02:00,
2013-08-27 20:17:00,76.2,73.0,29.92,NE,56,0.0,1.0,88,0.00,,,0.91,weatherlink.com 1.10,2013-08-28 01:17:00,
2013-08-27 20:32:00,75.9,72.0,29.92,NE,56,0.0,0.0,88,0.00,,,0.91,weatherlink.com 1.10,2013-08-28 01:32:00,
2013-08-27 20:47:00,75.7,72.0,29.92,NE,56,0.0,0.0,89,0.00,,,0.91,weatherlink.com 1.10,2013-08-28 01:47:00,
2013-08-27 21:02:00,75.4,72.0,29.92,NE,56,0.0,0.0,89,0.00,,,0.91,weatherlink.com 1.10,2013-08-28 02:02:00,
2013-08-27 21:17:00,75.1,72.0,29.93,NE,56,0.0,0.0,89,0.00,,,0.91,weatherlink.com 1.10,2013-08-28 02:17:00,
2013-08-27 21:32:00,75.0,72.0,29.93,NE,56,0.0,1.0,90,0.00,,,0.91,weatherlink.com 1.10,2013-08-28 02:32:00,
2013-08-27 22:02:00,74.7,72.0,29.94,NE,56,0.0,0.0,91,0.00,,,0.91,weatherlink.com 1.10,2013-08-28 03:02:00,
2013-08-27 22:17:00,74.5,72.0,29.95,NE,56,0.0,1.0,90,0.00,,,0.91,weatherlink.com 1.10,2013-08-28 03:17:00,
2013-08-27 22:32:00,74.6,71.0,29.95,NE,56,0.0,0.0,89,0.00,,,0.91,weatherlink.com 1.10,2013-08-28 03:32:00,
2013-08-27 22:47:00,75.1,70.0,29.95,ENE,57,1.0,4.0,85,0.00,,,0.91,weatherlink.com 1.10,2013-08-28 03:47:00,
2013-08-27 23:02:00,75.6,71.0,29.95,ENE,69,0.0,5.0,84,0.00,,,0.91,weatherlink.com 1.10,2013-08-28 04:02:00,
2013-08-27 23:17:00,75.6,70.0,29.95,ENE,78,2.0,4.0,83,0.00,,,0.91,weatherlink.com 1.10,2013-08-28 04:17:00,
2013-08-27 23:32:00,75.6,70.0,29.96,SSE,150,0.0,4.0,83,0.00,,,0.91,weatherlink.com 1.10,2013-08-28 04:32:00,
2013-08-27 23:47:00,75.3,70.0,29.95,SSE,150,1.0,5.0,84,0.00,,,0.91,weatherlink.com 1.10,2013-08-28 04:47:00,